Time;durP1;ratioP1;P1;durP2;ratioP2;P2;SDS_P1;SDS_P2;PMS_P1;PMS_P2;Temp;Humidity;BMP_temperature;BMP_pressure;BME280_temperature;BME280_humidity;BME280_pressure;Samples;Min_cycle;Max_cycle;Signal;HPM_P1;HPM_P2
2022/01/16 00:04:31;;;;;;;12.82;6.05;;;3.20;99.90;;;3.20;100.00;101531.28;5053202;28;20208;-67
2022/01/16 00:07:03;;;;;;;14.75;5.68;;;3.20;99.90;;;3.19;100.00;101536.50;5051202;28;20198;-64
2022/01/16 00:09:31;;;;;;;11.15;5.07;;;3.20;99.90;;;3.23;100.00;101528.63;5030756;28;20198;-64
2022/01/16 00:12:00;;;;;;;18.42;6.72;;;3.20;99.90;;;3.21;100.00;101548.47;5048291;28;20205;-64
2022/01/16 00:14:29;;;;;;;11.27;5.82;;;3.20;99.90;;;3.18;100.00;101551.13;5031728;28;20202;-64
2022/01/16 00:16:57;;;;;;;13.55;5.90;;;3.10;99.90;;;3.15;100.00;101538.31;5050060;28;20667;-65
2022/01/16 00:19:25;;;;;;;14.38;5.80;;;3.10;99.90;;;3.04;100.00;101548.94;5052710;28;20252;-63
2022/01/16 00:21:52;;;;;;;14.27;5.75;;;3.00;99.90;;;3.02;100.00;101553.25;5035252;28;20227;-64
2022/01/16 00:24:19;;;;;;;20.17;9.32;;;3.00;99.90;;;3.09;100.00;101551.34;5053240;28;20204;-64
2022/01/16 00:26:46;;;;;;;10.65;5.88;;;3.10;99.90;;;3.08;100.00;101534.22;5053071;28;20254;-64
2022/01/16 00:29:13;;;;;;;10.63;4.53;;;3.10;99.90;;;2.94;100.00;101513.94;5052456;28;20312;-64
2022/01/16 00:31:41;;;;;;;22.70;9.07;;;3.00;99.90;;;2.99;100.00;101522.41;5051749;28;20229;-64
2022/01/16 00:34:10;;;;;;;4.20;1.98;;;3.00;99.90;;;2.88;100.00;101511.53;5051646;28;20315;-64
2022/01/16 00:36:37;;;;;;;7.50;4.07;;;2.90;99.90;;;2.77;100.00;101498.06;5050672;28;20204;-64
2022/01/16 00:39:05;;;;;;;5.60;2.85;;;2.90;99.90;;;2.73;100.00;101513.66;5051265;28;20240;-63
2022/01/16 00:41:33;;;;;;;1.65;1.00;;;2.70;99.90;;;2.72;100.00;101511.97;5017695;28;20226;-64
2022/01/16 00:44:00;;;;;;;12.43;5.88;;;2.70;99.90;;;2.68;100.00;101520.69;5032074;28;20747;-64
2022/01/16 00:46:27;;;;;;;2.33;2.10;;;2.60;99.90;;;2.71;100.00;101538.63;5044395;28;20236;-64
2022/01/16 00:48:54;;;;;;;8.40;3.45;;;2.70;99.90;;;2.74;100.00;101538.56;5018522;28;20205;-64
2022/01/16 00:51:21;;;;;;;2.00;1.50;;;2.70;99.90;;;2.59;100.00;101529.47;5033915;28;20784;-64
2022/01/16 00:53:48;;;;;;;7.40;3.33;;;2.60;99.90;;;2.66;100.00;101538.72;5034089;28;20675;-61
2022/01/16 00:56:15;;;;;;;1.65;1.55;;;2.70;99.90;;;2.68;100.00;101554.16;5052001;28;20680;-64
2022/01/16 00:58:42;;;;;;;5.22;3.72;;;2.70;99.90;;;2.63;100.00;101554.28;5050937;28;20225;-64
2022/01/16 01:01:10;;;;;;;5.18;1.95;;;2.60;99.90;;;2.62;100.00;101555.16;5050622;28;20223;-64
2022/01/16 01:03:37;;;;;;;14.88;7.18;;;2.60;99.90;;;2.58;100.00;101545.81;5050116;28;20235;-64
2022/01/16 01:06:05;;;;;;;11.63;5.07;;;2.60;99.90;;;2.59;100.00;101557.81;5051049;28;20698;-64
2022/01/16 01:08:32;;;;;;;9.57;4.35;;;2.60;99.90;;;2.58;100.00;101539.84;5051078;28;20209;-64
2022/01/16 01:11:03;;;;;;;15.35;5.43;;;2.60;99.90;;;2.59;100.00;101554.41;5030798;28;20232;-64
2022/01/16 01:16:02;;;;;;;18.42;7.40;;;2.50;99.90;;;2.57;100.00;101541.56;5014101;28;20675;-64
2022/01/16 01:18:34;;;;;;;12.52;6.22;;;2.60;99.90;;;2.57;100.00;101545.84;5022076;28;20645;-63
2022/01/16 01:21:03;;;;;;;7.28;4.00;;;2.50;99.90;;;2.61;100.00;101552.63;5049237;28;20213;-64
2022/01/16 01:23:30;;;;;;;25.30;9.40;;;2.60;99.90;;;2.65;100.00;101552.50;5050851;28;20702;-64
2022/01/16 01:25:57;;;;;;;8.43;4.20;;;2.70;99.90;;;2.63;100.00;101489.00;5049142;28;20740;-64
2022/01/16 01:28:24;;;;;;;19.67;7.93;;;2.70;99.90;;;2.64;100.00;101476.09;5050973;28;20216;-64
2022/01/16 01:30:51;;;;;;;3.88;3.53;;;2.70;99.90;;;2.61;100.00;101450.41;5051846;28;20805;-64
2022/01/16 01:33:20;;;;;;;11.35;4.97;;;2.60;99.90;;;2.62;100.00;101457.25;5051179;28;20205;-64
2022/01/16 01:35:47;;;;;;;19.90;7.72;;;2.70;99.90;;;2.65;100.00;101452.03;5050158;28;20694;-64
2022/01/16 01:38:18;;;;;;;17.90;7.72;;;2.70;99.90;;;2.66;100.00;101456.28;5029583;28;20256;-63
2022/01/16 01:40:50;;;;;;;14.00;6.88;;;2.60;99.90;;;2.65;100.00;101477.78;5045929;28;20275;-64
2022/01/16 01:51:36;;;;;;;8.90;3.40;;;2.80;99.90;;;2.67;100.00;101522.41;5028376;28;20230;-64
2022/01/16 01:54:06;;;;;;;4.15;2.63;;;2.70;99.90;;;2.61;100.00;101519.97;5030348;28;20229;-64
2022/01/16 01:56:33;;;;;;;3.72;1.95;;;2.60;99.90;;;2.49;100.00;101540.91;5035385;28;20213;-64
2022/01/16 01:59:01;;;;;;;9.38;4.85;;;2.50;99.90;;;2.48;100.00;101546.06;5051331;28;20224;-64
2022/01/16 02:01:30;;;;;;;3.97;2.63;;;2.50;99.90;;;2.45;100.00;101528.13;5049809;28;20323;-64
2022/01/16 02:03:58;;;;;;;12.30;6.38;;;2.50;99.90;;;2.51;100.00;101533.13;5050038;28;20247;-64
2022/01/16 02:06:29;;;;;;;12.60;6.63;;;2.50;99.90;;;2.50;100.00;101540.00;5023810;28;20198;-64
2022/01/16 02:08:59;;;;;;;4.35;2.67;;;2.50;99.90;;;2.52;100.00;101533.09;5031657;28;20210;-64
2022/01/16 02:11:31;;;;;;;20.83;6.78;;;2.60;99.90;;;2.56;100.00;101539.00;5048764;28;20732;-64
2022/01/16 02:14:25;;;;;;;21.13;9.50;;;2.60;99.90;;;2.60;100.00;101550.94;5032483;28;20707;-64
2022/01/16 02:28:20;;;;;;;20.60;8.45;;;2.70;99.90;;;2.75;100.00;101530.78;5049815;28;20691;-64
2022/01/16 02:31:16;;;;;;;18.88;6.18;;;2.80;99.90;;;2.66;100.00;101528.41;5050137;28;20228;-64
2022/01/16 02:36:46;;;;;;;11.25;6.50;;;2.60;99.90;;;2.57;100.00;101525.25;5050690;28;20565;-64
2022/01/16 02:39:15;;;;;;;8.57;3.80;;;2.50;99.90;;;2.59;100.00;101508.88;5049826;28;20229;-64
2022/01/16 02:41:44;;;;;;;6.88;4.05;;;2.60;99.90;;;2.55;100.00;101512.41;5049414;28;20217;-63
2022/01/16 02:44:21;;;;;;;10.85;4.78;;;2.60;99.90;;;2.55;100.00;101508.97;5031836;28;20197;-64
2022/01/16 02:46:49;;;;;;;15.63;6.63;;;2.50;99.90;;;2.56;100.00;101508.09;5050052;28;20284;-64
2022/01/16 02:49:29;;;;;;;14.93;6.47;;;2.50;99.90;;;2.51;100.00;101510.81;5049015;28;20305;-64
2022/01/16 02:52:03;;;;;;;8.80;3.47;;;2.50;99.90;;;2.51;100.00;101510.81;5050238;28;20228;-64
2022/01/16 02:54:35;;;;;;;10.50;6.15;;;2.50;99.90;;;2.53;100.00;101514.19;5032323;28;20212;-64
2022/01/16 02:57:15;;;;;;;17.77;6.10;;;2.50;99.90;;;2.51;100.00;101505.66;5029184;28;20297;-64
2022/01/16 02:59:51;;;;;;;15.10;5.82;;;2.50;99.90;;;2.57;100.00;101500.34;5039138;28;20228;-64
2022/01/16 03:02:21;;;;;;;9.38;5.28;;;2.50;99.90;;;2.59;100.00;101496.00;5050542;28;20201;-64
2022/01/16 03:04:48;;;;;;;5.25;3.35;;;2.60;99.90;;;2.52;100.00;101489.28;5051433;28;20631;-63
2022/01/16 03:07:16;;;;;;;18.42;5.63;;;2.60;99.90;;;2.48;100.00;101485.09;5053573;28;20732;-64
2022/01/16 03:10:05;;;;;;;19.35;5.40;;;2.50;99.90;;;2.46;100.00;101492.03;5024282;28;20683;-64
2022/01/16 03:12:31;;;;;;;11.90;3.97;;;2.50;99.90;;;2.50;100.00;101485.91;5034403;28;20210;-64
2022/01/16 03:14:58;;;;;;;8.57;5.10;;;2.50;99.90;;;2.50;100.00;101497.94;5033536;28;20214;-63
2022/01/16 03:17:39;;;;;;;7.85;4.10;;;2.50;99.90;;;2.53;100.00;101496.16;5034538;28;20216;-64
2022/01/16 03:22:53;;;;;;;19.70;7.88;;;2.60;99.90;;;2.64;100.00;101499.28;5054115;28;20227;-64
2022/01/16 03:25:20;;;;;;;5.90;3.42;;;2.70;99.90;;;2.61;100.00;101489.06;5053318;28;20666;-64
2022/01/16 03:27:47;;;;;;;19.38;5.50;;;2.60;99.90;;;2.63;99.86;101483.84;5054355;28;20206;-64
2022/01/16 03:30:14;;;;;;;21.25;7.68;;;2.70;99.90;;;2.62;99.59;101477.84;5052390;28;20232;-64
2022/01/16 03:32:41;;;;;;;2.17;1.67;;;2.60;99.90;;;2.59;99.38;101480.53;5053663;28;20205;-64
2022/01/16 03:35:08;;;;;;;15.85;6.47;;;2.60;99.90;;;2.55;99.85;101473.78;5051502;28;20202;-64
2022/01/16 03:37:35;;;;;;;7.07;1.65;;;2.60;99.90;;;2.54;100.00;101471.22;5045625;28;20202;-63
2022/01/16 03:40:07;;;;;;;7.03;2.25;;;2.50;99.90;;;2.49;100.00;101466.19;5037549;28;20232;-63
2022/01/16 03:42:36;;;;;;;9.68;4.57;;;2.50;99.90;;;2.52;100.00;101460.09;5035429;28;20202;-64
2022/01/16 03:45:05;;;;;;;10.27;4.70;;;2.50;99.90;;;2.51;99.95;101468.72;5052828;28;20201;-64
2022/01/16 03:47:32;;;;;;;13.55;5.88;;;2.50;99.90;;;2.52;100.00;101463.53;5053150;28;20675;-63
2022/01/16 03:49:59;;;;;;;8.90;5.05;;;2.50;99.90;;;2.59;100.00;101480.53;5053713;28;20225;-64
2022/01/16 03:52:26;;;;;;;7.43;2.15;;;2.60;99.90;;;2.53;99.70;101470.38;5052249;28;20205;-64
2022/01/16 03:54:53;;;;;;;1.75;0.82;;;2.60;99.90;;;2.47;100.00;101478.25;5051512;28;20288;-64
2022/01/16 03:57:20;;;;;;;2.05;1.70;;;2.50;99.90;;;2.44;99.91;101462.88;5052134;28;20201;-64
2022/01/16 03:59:47;;;;;;;6.82;2.58;;;2.40;99.90;;;2.47;99.82;101467.94;5052120;28;20221;-64
2022/01/16 04:02:14;;;;;;;18.77;7.82;;;2.50;99.90;;;2.53;99.75;101469.53;5040408;28;20194;-64
2022/01/16 04:04:41;;;;;;;12.75;5.47;;;2.50;99.90;;;2.51;99.18;101464.44;5032884;28;20738;-64
2022/01/16 04:07:12;;;;;;;3.05;1.92;;;2.50;99.90;;;2.50;99.60;101470.44;5033934;28;20293;-64
2022/01/16 04:09:41;;;;;;;11.05;4.70;;;2.60;99.90;;;2.45;99.24;101451.69;5051207;28;20211;-62
2022/01/16 04:12:09;;;;;;;1.20;1.10;;;2.50;99.90;;;2.40;99.89;101461.28;5051168;28;20202;-64
2022/01/16 04:17:20;;;;;;;15.73;6.60;;;2.40;99.90;;;2.48;98.98;101473.94;5052855;28;20623;-64
2022/01/16 04:19:49;;;;;;;13.02;5.25;;;2.50;99.90;;;2.50;98.86;101483.34;5034021;28;20224;-64
2022/01/16 04:22:16;;;;;;;12.60;5.95;;;2.50;99.90;;;2.52;99.33;101478.13;5052164;28;20689;-64
2022/01/16 04:24:43;;;;;;;16.73;6.13;;;2.50;99.90;;;2.52;98.05;101473.84;5064032;28;20659;-64
2022/01/16 04:27:14;;;;;;;24.13;8.95;;;2.60;99.90;;;2.50;98.60;101478.19;5052260;28;20201;-64
2022/01/16 04:29:44;;;;;;;12.50;5.43;;;2.50;99.90;;;2.42;98.10;101480.09;5048465;28;20198;-64
2022/01/16 04:32:12;;;;;;;12.80;4.57;;;2.50;99.90;;;2.47;97.46;101482.56;5033112;28;20232;-64
2022/01/16 04:34:40;;;;;;;25.45;8.30;;;2.50;99.90;;;2.46;97.70;101474.00;5042616;28;20667;-64
2022/01/16 04:37:07;;;;;;;15.82;6.15;;;2.50;99.90;;;2.49;97.57;101466.19;5052299;28;20205;-64
2022/01/16 04:39:36;;;;;;;22.77;9.80;;;2.50;99.90;;;2.49;97.70;101467.94;5050637;28;20226;-63
2022/01/16 04:44:52;;;;;;;7.10;3.60;;;2.50;99.90;;;2.22;97.31;101457.41;5049884;28;20230;-64
2022/01/16 04:47:20;;;;;;;16.92;6.40;;;2.30;99.90;;;2.22;97.83;101454.84;5052155;28;20198;-64
2022/01/16 04:49:47;;;;;;;20.15;7.90;;;2.20;99.90;;;2.21;98.10;101470.34;5051561;28;20774;-64
2022/01/16 04:52:14;;;;;;;5.15;2.38;;;2.30;99.90;;;2.23;97.27;101464.28;5052679;28;20292;-64
2022/01/16 04:54:40;;;;;;;15.00;6.80;;;2.30;99.90;;;2.21;97.50;101478.91;5050726;28;20584;-64
2022/01/16 04:57:07;;;;;;;21.73;8.63;;;2.20;99.90;;;2.21;97.34;101481.50;5051952;28;20583;-64
2022/01/16 04:59:34;;;;;;;18.63;7.95;;;2.20;99.90;;;2.21;98.04;101485.78;5051839;28;20236;-64
2022/01/16 05:02:01;;;;;;;28.65;9.70;;;2.20;99.90;;;2.18;98.14;101478.13;5033603;28;20197;-64
2022/01/16 05:04:28;;;;;;;20.45;6.72;;;2.30;99.90;;;2.21;97.05;101476.34;5051460;28;20205;-64
2022/01/16 05:06:55;;;;;;;13.88;6.53;;;2.30;99.90;;;2.24;96.90;101481.41;5049577;28;20212;-64
2022/01/16 05:09:22;;;;;;;6.50;3.08;;;2.30;99.90;;;2.21;96.25;101475.50;5044293;28;20201;-64
2022/01/16 05:11:56;;;;;;;13.70;6.43;;;2.30;99.90;;;2.17;97.03;101476.44;5051562;28;20236;-64
2022/01/16 05:17:09;;;;;;;21.83;6.90;;;2.20;99.90;;;2.20;97.41;101478.94;5050406;28;20219;-64
2022/01/16 05:19:37;;;;;;;9.50;5.50;;;2.20;99.90;;;2.13;97.47;101478.22;5050947;28;20225;-64
2022/01/16 05:22:04;;;;;;;9.65;4.50;;;2.20;99.90;;;2.00;97.66;101483.72;5051282;28;20233;-63
2022/01/16 05:24:35;;;;;;;17.83;6.85;;;2.10;99.90;;;2.04;98.03;101493.91;5052715;28;20272;-63
2022/01/16 05:27:05;;;;;;;24.10;7.90;;;2.00;99.90;;;2.11;97.34;101494.59;5032836;28;20682;-64
2022/01/16 05:29:32;;;;;;;22.55;7.57;;;2.10;99.90;;;2.15;97.12;101491.91;5049882;28;20208;-63
2022/01/16 05:31:58;;;;;;;6.00;3.70;;;2.20;99.90;;;2.16;97.20;101492.78;5048713;28;20663;-64
2022/01/16 05:34:26;;;;;;;5.40;2.55;;;2.20;99.90;;;2.06;97.01;101491.31;5049819;28;20284;-64
2022/01/16 05:36:53;;;;;;;15.80;6.82;;;2.10;99.90;;;2.05;97.62;101485.31;5051764;28;20643;-64
2022/01/16 05:39:20;;;;;;;17.15;6.53;;;2.00;99.90;;;2.00;97.41;101497.41;5050449;28;20252;-62
2022/01/16 05:41:47;;;;;;;9.50;4.63;;;2.00;99.90;;;2.04;97.26;101493.91;5051125;28;20221;-63
2022/01/16 05:44:14;;;;;;;13.77;5.25;;;2.10;99.90;;;2.05;97.57;101495.59;5050728;28;20204;-64
2022/01/16 05:46:41;;;;;;;7.75;3.83;;;2.10;99.90;;;1.98;97.57;101491.47;5051118;28;20193;-63
2022/01/16 05:49:09;;;;;;;15.27;6.28;;;2.10;99.90;;;2.04;97.53;101503.38;5051505;28;20208;-64
2022/01/16 05:51:35;;;;;;;22.33;9.35;;;2.00;99.90;;;2.05;97.24;101497.31;5050035;28;20229;-63
2022/01/16 05:54:02;;;;;;;16.52;6.78;;;2.10;99.90;;;2.11;97.17;101507.47;5050111;28;20212;-63
2022/01/16 05:56:29;;;;;;;28.67;9.82;;;2.10;99.90;;;2.11;96.56;101507.47;5049075;28;20219;-61
2022/01/16 05:58:56;;;;;;;21.25;8.85;;;2.20;99.90;;;2.06;96.42;101507.59;5051818;28;20247;-64
2022/01/16 06:01:23;;;;;;;12.10;5.97;;;2.10;99.90;;;1.99;96.29;101510.34;5050016;28;20300;-64
2022/01/16 06:03:50;;;;;;;18.30;7.22;;;2.10;99.90;;;2.03;96.29;101511.94;5032824;28;20221;-64
2022/01/16 06:06:17;;;;;;;17.13;7.38;;;2.10;99.90;;;2.03;96.39;101522.25;5049851;28;20579;-64
2022/01/16 06:08:44;;;;;;;16.10;7.60;;;2.10;99.90;;;2.10;95.59;101526.38;5050725;28;20189;-63
2022/01/16 06:11:11;;;;;;;16.35;6.15;;;2.10;99.90;;;2.02;95.39;101520.56;5046215;28;20225;-64
2022/01/16 06:13:37;;;;;;;25.75;10.25;;;2.10;99.90;;;1.95;95.35;101527.59;5048756;28;20197;-64
2022/01/16 06:16:04;;;;;;;12.80;6.10;;;2.00;99.90;;;1.97;95.13;101542.97;5049618;28;20288;-64
2022/01/16 06:18:32;;;;;;;22.08;9.35;;;2.00;99.90;;;2.01;95.49;101531.75;5028196;28;20206;-64
2022/01/16 06:20:59;;;;;;;24.80;8.95;;;2.10;99.90;;;1.98;95.62;101544.69;5043174;28;20213;-64
2022/01/16 06:23:25;;;;;;;17.10;7.55;;;2.10;99.90;;;2.05;95.34;101548.81;5050534;28;20213;-63
2022/01/16 06:25:54;;;;;;;9.27;4.63;;;2.10;99.90;;;2.05;95.29;101549.66;5048669;28;20278;-63
2022/01/16 06:28:23;;;;;;;12.98;5.93;;;2.20;99.90;;;1.98;94.50;101562.72;5044202;28;20205;-64
2022/01/16 06:30:51;;;;;;;12.38;5.90;;;2.00;99.90;;;2.04;94.68;101565.16;5045641;28;20233;-64
2022/01/16 06:33:18;;;;;;;23.27;8.23;;;2.00;99.90;;;2.06;94.96;101581.41;5050372;28;20209;-64
2022/01/16 06:35:45;;;;;;;20.08;7.93;;;2.10;99.90;;;2.10;94.73;101580.44;5033702;28;20563;-64
2022/01/16 06:38:12;;;;;;;19.67;7.00;;;2.10;99.90;;;2.12;95.24;101573.53;5039604;28;20228;-64
2022/01/16 06:40:39;;;;;;;18.52;7.10;;;2.10;99.90;;;2.13;94.71;101570.09;5054032;28;20225;-64
2022/01/16 06:43:05;;;;;;;12.75;6.35;;;2.20;99.90;;;2.18;94.63;101583.69;5052541;28;20207;-64
2022/01/16 06:45:32;;;;;;;8.70;5.10;;;2.20;99.90;;;2.18;94.20;101574.25;5053410;28;20197;-64
2022/01/16 06:47:59;;;;;;;13.30;7.15;;;2.30;99.90;;;2.15;93.82;101574.31;5052877;28;20628;-64
2022/01/16 06:50:26;;;;;;;9.93;5.47;;;2.20;99.90;;;2.08;93.96;101571.91;5034610;28;20262;-63
2022/01/16 06:52:53;;;;;;;5.97;4.50;;;2.10;99.90;;;2.11;93.48;101585.56;5034575;28;20200;-63
2022/01/16 06:55:20;;;;;;;16.02;7.13;;;2.20;99.90;;;2.16;94.20;101588.03;5053735;28;20215;-64
2022/01/16 06:57:47;;;;;;;20.48;8.02;;;2.20;99.90;;;2.14;93.68;101587.22;5052603;28;20216;-63
2022/01/16 07:00:14;;;;;;;17.95;7.35;;;2.20;99.90;;;2.16;94.04;101600.91;5053490;28;20243;-63
2022/01/16 07:02:41;;;;;;;10.50;5.90;;;2.20;99.90;;;2.22;93.58;101595.59;5053882;28;20289;-64
2022/01/16 07:05:09;;;;;;;9.50;5.15;;;2.30;99.90;;;2.23;93.48;101602.47;5032836;28;20194;-63
2022/01/16 07:07:36;;;;;;;12.10;5.53;;;2.30;99.90;;;2.24;93.66;101596.41;5015745;28;20206;-64
2022/01/16 07:10:04;;;;;;;10.75;5.45;;;2.30;99.90;;;2.23;93.68;101603.31;5049954;28;20290;-64
2022/01/16 07:12:31;;;;;;;10.98;5.63;;;2.30;99.90;;;2.25;93.21;101608.44;5040577;28;20457;-64
2022/01/16 07:14:58;;;;;;;8.98;4.50;;;2.30;99.90;;;2.11;93.34;101613.88;5050873;28;20208;-62
2022/01/16 07:17:24;;;;;;;13.50;6.25;;;2.10;99.90;;;2.05;94.66;101619.16;5052809;28;20205;-64
2022/01/16 07:19:51;;;;;;;10.20;4.03;;;2.10;99.90;;;2.10;94.11;101622.50;5052525;28;20235;-64
2022/01/16 07:22:21;;;;;;;7.13;4.07;;;2.10;99.90;;;2.11;94.41;101631.91;5052727;28;20201;-64
2022/01/16 07:24:50;;;;;;;6.85;4.70;;;2.10;99.90;;;2.06;94.48;101628.59;5043875;28;20264;-64
2022/01/16 07:27:18;;;;;;;7.78;4.22;;;2.10;99.90;;;2.16;94.15;101617.22;5044191;28;20655;-64
2022/01/16 07:29:46;;;;;;;19.25;7.05;;;2.20;99.90;;;2.16;93.38;101636.94;5033133;28;20213;-63
2022/01/16 07:32:13;;;;;;;24.05;7.50;;;2.20;99.90;;;2.22;92.66;101636.81;5034355;28;20202;-64
2022/01/16 07:34:40;;;;;;;10.60;5.80;;;2.20;99.90;;;2.22;91.92;101641.97;5034094;28;20702;-64
2022/01/16 07:37:07;;;;;;;10.18;4.70;;;2.30;99.90;;;2.22;92.28;101647.97;5034092;28;20210;-64
2022/01/16 07:39:34;;;;;;;18.42;6.53;;;2.20;99.90;;;2.25;91.97;101645.34;5033949;28;20609;-64
2022/01/16 07:42:00;;;;;;;16.35;7.32;;;2.30;99.90;;;2.24;90.89;101655.66;5034162;28;20202;-63
2022/01/16 07:44:27;;;;;;;9.82;5.20;;;2.30;99.90;;;2.24;90.73;101666.81;5034087;28;20202;-64
2022/01/16 07:46:54;;;;;;;9.15;4.72;;;2.30;99.90;;;2.25;91.23;101678.81;5033636;28;20204;-63
2022/01/16 07:49:21;;;;;;;1.75;1.48;;;2.30;99.90;;;2.25;91.12;101671.09;5033288;28;20202;-64
2022/01/16 07:51:48;;;;;;;14.55;5.15;;;2.30;99.90;;;2.26;90.61;101669.34;5033483;28;20241;-64
2022/01/16 07:54:15;;;;;;;10.77;4.72;;;2.30;99.90;;;2.31;91.02;101683.81;5033945;28;20575;-64
2022/01/16 07:56:42;;;;;;;13.25;6.30;;;2.30;99.90;;;2.27;90.72;101686.50;5044773;28;20577;-64
2022/01/16 07:59:09;;;;;;;4.55;2.45;;;2.30;99.90;;;2.28;90.40;101677.88;5044457;28;20204;-64
2022/01/16 08:01:36;;;;;;;18.13;7.45;;;2.30;99.90;;;2.31;90.70;101688.97;5051708;28;20214;-64
2022/01/16 08:04:03;;;;;;;8.15;4.60;;;2.30;99.90;;;2.34;90.21;101682.91;5035294;28;20623;-64
2022/01/16 08:06:31;;;;;;;14.25;6.03;;;2.40;99.90;;;2.33;90.56;101684.66;5051115;28;20205;-64
2022/01/16 08:08:58;;;;;;;12.00;5.70;;;2.40;99.90;;;2.29;89.85;101683.00;5051042;28;20205;-64
2022/01/16 08:11:25;;;;;;;10.00;5.82;;;2.40;99.90;;;2.30;90.37;101676.13;5048235;28;20675;-64
2022/01/16 08:13:52;;;;;;;13.27;6.15;;;2.30;99.90;;;2.27;89.96;101681.34;5033216;28;20205;-63
2022/01/16 08:16:19;;;;;;;18.98;7.70;;;2.30;99.90;;;2.30;89.89;101673.53;5044427;28;20201;-64
2022/01/16 08:18:46;;;;;;;5.75;3.03;;;2.30;99.90;;;2.31;90.19;101673.53;5053448;28;20209;-64
2022/01/16 08:21:13;;;;;;;20.23;9.07;;;2.40;99.90;;;2.34;90.37;101667.47;5035569;28;20229;-64
2022/01/16 08:23:40;;;;;;;12.93;6.45;;;2.40;99.90;;;2.38;89.99;101673.38;5052365;28;20204;-63
2022/01/16 08:26:06;;;;;;;13.25;6.47;;;2.40;99.90;;;2.39;90.06;101678.50;5031483;28;20212;-64
2022/01/16 08:28:33;;;;;;;15.73;6.75;;;2.50;99.90;;;2.42;89.94;101685.31;5032863;28;20209;-62
2022/01/16 08:31:00;;;;;;;16.25;7.20;;;2.40;99.90;;;2.43;89.49;101690.44;5051997;28;20229;-64
2022/01/16 08:33:27;;;;;;;9.95;5.55;;;2.50;99.90;;;2.43;90.00;101687.84;5034876;28;20205;-64
2022/01/16 08:35:54;;;;;;;5.45;3.38;;;2.40;99.90;;;2.43;90.14;101687.03;5051642;28;20205;-63
2022/01/16 08:38:22;;;;;;;16.40;6.05;;;2.50;99.90;;;2.46;89.79;101685.22;5047853;28;20205;-64
2022/01/16 08:40:50;;;;;;;12.60;6.40;;;2.50;99.90;;;2.54;89.96;101698.78;5050686;28;20232;-64
2022/01/16 08:43:17;;;;;;;10.48;5.80;;;2.60;99.90;;;2.59;88.90;101699.53;5051146;28;20288;-64
2022/01/16 08:45:44;;;;;;;9.65;5.00;;;2.70;99.90;;;2.68;88.59;101706.22;5051709;28;20197;-64
2022/01/16 08:48:11;;;;;;;18.23;7.03;;;2.70;99.90;;;2.70;88.86;101707.88;5052360;28;20227;-63
2022/01/16 08:50:39;;;;;;;11.07;5.80;;;2.80;99.90;;;2.71;88.33;101712.13;5050893;28;20213;-64
2022/01/16 08:53:07;;;;;;;15.00;6.60;;;2.80;99.90;;;2.71;88.31;101713.84;5051622;28;20209;-62
2022/01/16 08:55:35;;;;;;;10.13;5.35;;;2.80;99.90;;;2.73;88.58;101709.50;5032033;28;20210;-63
2022/01/16 08:58:03;;;;;;;13.23;5.95;;;2.80;99.90;;;2.69;88.50;101726.78;5051225;28;20592;-65
2022/01/16 09:00:32;;;;;;;18.52;9.60;;;2.70;99.90;;;2.69;87.94;101726.78;5050342;28;20352;-62
2022/01/16 09:02:59;;;;;;;17.65;7.75;;;2.70;99.90;;;2.71;88.62;101743.06;5050889;28;20201;-63
2022/01/16 09:05:27;;;;;;;23.10;8.68;;;2.80;99.90;;;2.73;88.29;101733.56;5050416;28;20203;-63
2022/01/16 09:07:55;;;;;;;15.40;7.00;;;2.80;99.90;;;2.78;87.98;101725.72;5046208;28;20225;-63
2022/01/16 09:10:22;;;;;;;13.65;5.85;;;2.80;99.90;;;2.79;87.81;101743.72;5016352;28;20251;-64
2022/01/16 09:12:49;;;;;;;21.65;8.75;;;2.90;99.90;;;2.80;87.31;101740.28;5051225;28;20303;-64
2022/01/16 09:15:16;;;;;;;10.68;5.45;;;2.90;99.90;;;2.79;87.61;101737.75;5050823;28;20670;-63
2022/01/16 09:17:43;;;;;;;23.60;9.57;;;2.80;99.90;;;2.80;87.67;101737.69;5050011;28;20288;-63
2022/01/16 09:20:13;;;;;;;22.73;8.82;;;2.90;99.90;;;2.83;87.65;101737.63;5049909;28;20225;-64
2022/01/16 09:22:44;;;;;;;15.80;7.10;;;2.90;99.90;;;2.85;87.03;101743.63;5042025;28;20201;-63
2022/01/16 09:25:13;;;;;;;23.50;9.38;;;2.90;99.90;;;2.87;87.22;101746.16;5049849;28;20713;-63
2022/01/16 09:27:41;;;;;;;24.30;9.00;;;3.00;99.90;;;2.84;86.76;101741.91;5051987;28;20639;-63
2022/01/16 09:30:10;;;;;;;15.20;5.55;;;2.90;99.90;;;2.89;87.28;101747.81;5049142;28;20224;-64
2022/01/16 09:32:38;;;;;;;18.65;8.15;;;3.00;99.90;;;2.88;86.37;101753.84;5051224;28;20205;-64
2022/01/16 09:35:07;;;;;;;16.15;7.22;;;2.90;99.90;;;2.82;86.68;101755.69;5050811;28;20204;-64
2022/01/16 09:37:35;;;;;;;14.05;5.97;;;2.90;99.90;;;2.88;87.13;101765.88;5048294;28;20228;-63
2022/01/16 09:40:05;;;;;;;9.80;4.60;;;2.90;99.90;;;2.94;86.40;101769.16;5039933;28;20308;-63
2022/01/16 09:42:32;;;;;;;16.05;6.70;;;3.00;99.90;;;2.96;86.65;101769.16;5029617;28;20206;-64
2022/01/16 09:44:59;;;;;;;17.33;6.72;;;3.00;99.90;;;3.01;85.98;101777.59;5039961;28;20193;-66
2022/01/16 09:47:26;;;;;;;12.05;6.07;;;3.10;99.90;;;3.03;85.82;101781.00;5049350;28;20211;-65
2022/01/16 09:49:53;;;;;;;12.90;5.70;;;3.10;99.90;;;3.05;85.41;101782.66;5029699;28;20271;-65
2022/01/16 09:52:21;;;;;;;20.05;9.13;;;3.10;99.90;;;3.03;85.50;101796.47;5050502;28;20304;-65
2022/01/16 09:54:49;;;;;;;22.95;9.30;;;3.10;99.90;;;3.00;85.42;101804.28;5032568;28;20577;-66
2022/01/16 09:57:16;;;;;;;10.50;4.88;;;3.10;99.90;;;2.89;86.43;101801.94;5050890;28;20197;-66
2022/01/16 09:59:45;;;;;;;9.40;4.75;;;3.00;99.90;;;2.92;86.00;101799.28;5047465;28;20202;-65
2022/01/16 10:02:13;;;;;;;4.75;2.80;;;2.90;99.90;;;2.89;85.23;101799.38;5045745;28;20247;-65
2022/01/16 10:04:43;;;;;;;16.42;6.40;;;2.90;99.90;;;2.93;85.32;101802.72;5034666;28;20225;-65
2022/01/16 10:07:16;;;;;;;10.75;5.20;;;3.00;99.90;;;2.86;85.68;101802.00;5051540;28;20197;-66
2022/01/16 10:10:12;;;;;;;7.50;3.50;;;2.90;99.90;;;2.72;86.13;101793.72;5048815;28;20284;-66
2022/01/16 10:12:49;;;;;;;23.40;8.90;;;2.80;99.90;;;2.75;86.63;101797.94;5028815;28;20201;-67
2022/01/16 10:15:28;;;;;;;14.30;5.53;;;2.80;99.90;;;2.83;86.45;101783.19;5049423;28;20200;-64
2022/01/16 10:17:58;;;;;;;20.00;8.93;;;2.90;99.90;;;2.88;86.89;101791.66;5012857;28;20212;-66
2022/01/16 10:20:27;;;;;;;15.27;6.63;;;3.00;99.90;;;2.95;86.49;101785.47;5036595;28;21456;-63
2022/01/16 10:23:01;;;;;;;5.97;3.72;;;3.00;99.90;;;2.95;86.55;101788.06;5048192;28;20207;-63
2022/01/16 10:25:44;;;;;;;21.85;8.60;;;3.00;99.90;;;3.03;86.17;101789.59;5040854;28;20209;-64
2022/01/16 10:28:20;;;;;;;13.50;5.15;;;3.10;99.90;;;3.06;85.81;101783.53;5027812;28;20216;-63
2022/01/16 10:30:56;;;;;;;8.32;4.20;;;3.10;99.90;;;3.10;85.95;101783.41;5019857;28;20724;-63
2022/01/16 10:33:28;;;;;;;14.93;6.00;;;3.20;99.90;;;3.13;85.53;101780.75;5028326;28;20215;-64
2022/01/16 10:35:56;;;;;;;22.02;9.10;;;3.20;99.90;;;3.10;85.58;101783.41;5038242;28;20240;-64
2022/01/16 10:38:27;;;;;;;12.85;6.55;;;3.20;99.90;;;3.10;86.15;101780.84;5049301;28;20634;-64
2022/01/16 10:40:57;;;;;;;20.55;8.88;;;3.10;99.90;;;3.04;86.41;101780.13;5027786;28;20221;-64
2022/01/16 10:43:44;;;;;;;17.80;7.50;;;3.10;99.90;;;3.04;86.02;101785.28;5019350;28;20572;-66
2022/01/16 10:46:13;;;;;;;13.32;6.40;;;3.10;99.90;;;3.06;86.40;101786.94;5031791;28;20438;-66
2022/01/16 10:49:17;;;;;;;17.63;9.05;;;3.10;99.90;;;3.21;86.43;101793.47;5049889;28;20624;-65
2022/01/16 10:52:09;;;;;;;18.90;7.18;;;3.30;99.90;;;3.30;85.92;101797.56;5049198;28;20321;-64
2022/01/16 10:54:39;;;;;;;18.85;9.32;;;3.40;99.90;;;3.33;85.10;101793.19;5031997;28;20235;-64
2022/01/16 10:57:22;;;;;;;8.25;3.90;;;3.40;99.90;;;3.36;84.81;101792.28;5048677;28;20212;-64
2022/01/16 10:59:49;;;;;;;21.20;8.27;;;3.50;99.90;;;3.35;85.42;101785.41;5050680;28;20207;-64
2022/01/16 11:02:17;;;;;;;15.65;6.97;;;3.40;99.90;;;3.31;85.06;101783.78;5049320;28;20221;-65
2022/01/16 11:04:44;;;;;;;14.85;6.35;;;3.40;99.90;;;3.32;84.31;101793.22;5049063;28;20205;-65
2022/01/16 11:07:11;;;;;;;14.13;5.93;;;3.40;99.90;;;3.35;84.71;101781.09;5048793;28;20198;-64